Shinsei Maru — JD2188 — position and weather

sailwx.info

Track history (hours):
 
Tides and Currents Weather Stations Pressure Air Temp Water Temp Dewpoint Dewpoint Depression Visibility Wind Speed Wind Dir Waves Ship Positions

Shinsei Maru

Last reported at 2015-May-23 11:32 UTC. Time now 2015-May-23 11:53 UTC.
Position N 34°13' E 135°09'.

Length 104 m; draft 6.5 m.

Type: Tanker. MMSI: 431301775.

Date/timePositionNaut miles runAvg speedWind from/ knotsBaromVisibWave heightAir tempDewpointWater temp
2015-May-23 11:32N 34°13' E 135°09'0 0.0
2015-May-23 10:33N 34°13' E 135°09'0 0.0
2015-May-23 09:32N 34°13' E 135°09'0 0.0
2015-May-23 08:32N 34°13' E 135°09'0 0.0
2015-May-23 07:33N 34°13' E 135°09'0 0.0
2015-May-23 06:32N 34°13' E 135°09'0 0.0
2015-May-23 05:32N 34°13' E 135°09'0 0.0
2015-May-23 04:32N 34°13' E 135°09'0 0.0
2015-May-23 03:32N 34°13' E 135°09'0 0.0
2015-May-23 02:32N 34°13' E 135°09'0 0.0
2015-May-23 01:33N 34°13' E 135°09'0 0.0
2015-May-23 00:32N 34°13' E 135°09'1 1.2
2015-May-22 23:33N 34°13' E 135°07'2 1.9
2015-May-22 22:33N 34°14' E 135°05'9 9.1
2015-May-22 21:33N 34°22' E 135°02'1414.3
2015-May-22 20:33N 34°31' E 135°16'8 0.9
2015-May-22 11:16N 34°33' E 135°26'0 0.0
2015-May-22 10:28N 34°33' E 135°26'0 0.0
2015-May-22 09:22N 34°33' E 135°26'1 1.6
2015-May-22 08:33N 34°33' E 135°24'4 3.0
2015-May-22 07:07N 34°31' E 135°19'0 0.0
2015-May-22 06:13N 34°31' E 135°19'0 0.0
2015-May-22 05:31N 34°31' E 135°19'0 0.0
2015-May-22 03:25N 34°31' E 135°19'0 0.0
2015-May-22 02:25N 34°31' E 135°19'0 0.0
2015-May-22 00:19N 34°31' E 135°19'0 0.1
2015-May-21 23:31N 34°31' E 135°20'0 0.0
2015-May-21 22:19N 34°31' E 135°19'0 0.0
2015-May-21 21:31N 34°31' E 135°19'0 0.1
2015-May-21 20:31N 34°32' E 135°19'8 8.7
2015-May-21 19:34N 34°27' E 135°11'1312.6
2015-May-21 18:33N 34°18' E 134°60'1211.9
2015-May-21 17:33N 34°08' E 135°06'1 0.1
2015-May-21 11:33N 34°08' E 135°07'1 1.4
2015-May-21 10:31N 34°09' E 135°08'0 0.1
2015-May-21 09:28N 34°09' E 135°08'0 0.0
2015-May-21 08:31N 34°09' E 135°08'0 0.0
2015-May-21 07:28N 34°09' E 135°08'0 0.0
2015-May-21 06:31N 34°09' E 135°08'0 0.0
2015-May-21 05:31N 34°09' E 135°08'0 0.0
2015-May-21 04:31N 34°09' E 135°08'0 0.0
2015-May-21 03:31N 34°09' E 135°08'0 0.0
2015-May-21 02:25N 34°09' E 135°08'0 0.1
2015-May-21 01:28N 34°09' E 135°08'0 0.0
2015-May-21 00:31N 34°09' E 135°08'0 0.0
2015-May-20 23:31N 34°09' E 135°08'0 0.0
2015-May-20 22:31N 34°09' E 135°08'0 0.0
2015-May-20 21:31N 34°09' E 135°08'0 0.0
2015-May-20 20:31N 34°09' E 135°08'0 0.1
2015-May-20 19:31N 34°09' E 135°08'0 0.1
2015-May-20 18:25N 34°09' E 135°08'0 0.1
2015-May-20 17:31N 34°09' E 135°08'0 0.0
2015-May-20 16:31N 34°09' E 135°08'0 0.0
2015-May-20 15:31N 34°09' E 135°08'0 0.0
2015-May-20 14:31N 34°09' E 135°08'0 0.1
2015-May-20 13:25N 34°09' E 135°08'0 0.1
2015-May-20 12:28N 34°09' E 135°08'0 0.0
2015-May-20 11:31N 34°09' E 135°08'0 0.0
2015-May-20 10:31N 34°09' E 135°08'0 0.1
2015-May-20 09:31N 34°09' E 135°08'0 0.0
2015-May-20 08:31N 34°09' E 135°08'0 0.0
2015-May-20 07:31N 34°09' E 135°08'0 0.0
2015-May-20 06:28N 34°09' E 135°08'0 0.0
2015-May-20 05:28N 34°09' E 135°08'0 0.0
2015-May-20 04:25N 34°09' E 135°08'0 0.0
2015-May-20 03:31N 34°09' E 135°08'0 0.0
2015-May-20 02:07N 34°09' E 135°08'2 4.3
2015-May-20 01:33N 34°11' E 135°06'1211.6
2015-May-20 00:33N 34°22' E 135°00'1413.7
2015-May-19 23:33N 34°29' E 135°14'5 5.1
2015-May-19 22:30N 34°32' E 135°19'0 0.0
2015-May-19 21:18N 34°32' E 135°19'0 0.0
2015-May-19 20:06N 34°32' E 135°19'0 0.0
2015-May-19 19:18N 34°32' E 135°19'0 0.0
2015-May-19 16:30N 34°32' E 135°19'0 0.0
2015-May-19 15:30N 34°32' E 135°19'0 0.0
2015-May-19 14:30N 34°32' E 135°19'0 0.0
2015-May-19 13:24N 34°32' E 135°19'0 0.0
2015-May-19 12:30N 34°32' E 135°19'0 0.0
2015-May-19 11:30N 34°32' E 135°19'5 5.6
2015-May-19 10:31N 34°33' E 135°26'0 0.0
2015-May-19 09:25N 34°33' E 135°26'0 0.0
2015-May-19 01:19N 34°33' E 135°26'0 0.0
2015-May-19 00:31N 34°33' E 135°26'0 0.1
2015-May-18 22:33N 34°33' E 135°25'5 4.5
2015-May-18 21:31N 34°32' E 135°20'0 0.0
2015-May-18 20:31N 34°32' E 135°20'0 0.0
2015-May-18 19:25N 34°32' E 135°20'0 0.1
2015-May-18 18:31N 34°32' E 135°20'0 0.0
2015-May-18 16:25N 34°32' E 135°20'0 0.0
2015-May-18 15:07N 34°32' E 135°20'0 0.0
2015-May-18 14:07N 34°32' E 135°20'0 0.0
2015-May-18 13:31N 34°32' E 135°20'0 0.0
2015-May-18 12:19N 34°32' E 135°20'0 0.0
2015-May-18 09:19N 34°32' E 135°20'0 0.0
2015-May-18 08:31N 34°32' E 135°20'0 0.0
2015-May-18 07:13N 34°32' E 135°20'0 0.1
2015-May-18 06:25N 34°32' E 135°20'0 0.0
2015-May-18 05:31N 34°32' E 135°20'9 9.0
2015-May-18 04:33N 34°35' E 135°10'1515.0
2015-May-18 03:33N 34°34' E 134°52'  
2015-May-14 18:33N 34°36' E 134°56'9 9.0
2015-May-14 17:33N 34°31' E 135°04'1513.6
2015-May-14 16:27N 34°16' E 134°59'1213.7
2015-May-14 15:32N 34°04' E 134°60'21410.6
2015-May-13 19:25N 34°46' E 139°14'1112.4
2015-May-13 18:33N 34°53' E 139°24'1313.0
2015-May-13 17:33N 35°02' E 139°36'1313.1
2015-May-13 16:33N 35°12' E 139°46'1211.8
2015-May-13 15:34N 35°23' E 139°42'1313.2
2015-May-13 14:34N 35°31' E 139°55'6 5.0
2015-May-13 13:17N 35°31' E 140°03'0 0.0
2015-May-13 12:23N 35°31' E 140°03'  
Track history (hours):
 
Tides and Currents Weather Stations Pressure Air Temp Water Temp Dewpoint Dewpoint Depression Visibility Wind Speed Wind Dir Waves Ship Positions

Shinsei Maru

Last reported at 2015-May-23 11:32 UTC. Time now 2015-May-23 11:53 UTC.
Position N 34°13' E 135°09'.

Length 104 m; draft 6.5 m.

Type: Tanker. MMSI: 431301775.

Date/timePositionNaut miles runAvg speedWind from/ knotsBaromVisibWave heightAir tempDewpointWater temp
2015-May-23 11:32N 34°13' E 135°09'0 0.0
2015-May-23 10:33N 34°13' E 135°09'0 0.0
2015-May-23 09:32N 34°13' E 135°09'0 0.0
2015-May-23 08:32N 34°13' E 135°09'0 0.0
2015-May-23 07:33N 34°13' E 135°09'0 0.0
2015-May-23 06:32N 34°13' E 135°09'0 0.0
2015-May-23 05:32N 34°13' E 135°09'0 0.0
2015-May-23 04:32N 34°13' E 135°09'0 0.0
2015-May-23 03:32N 34°13' E 135°09'0 0.0
2015-May-23 02:32N 34°13' E 135°09'0 0.0
2015-May-23 01:33N 34°13' E 135°09'0 0.0
2015-May-23 00:32N 34°13' E 135°09'1 1.2
2015-May-22 23:33N 34°13' E 135°07'2 1.9
2015-May-22 22:33N 34°14' E 135°05'9 9.1
2015-May-22 21:33N 34°22' E 135°02'1414.3
2015-May-22 20:33N 34°31' E 135°16'8 0.9
2015-May-22 11:16N 34°33' E 135°26'0 0.0
2015-May-22 10:28N 34°33' E 135°26'0 0.0
2015-May-22 09:22N 34°33' E 135°26'1 1.6
2015-May-22 08:33N 34°33' E 135°24'4 3.0
2015-May-22 07:07N 34°31' E 135°19'0 0.0
2015-May-22 06:13N 34°31' E 135°19'0 0.0
2015-May-22 05:31N 34°31' E 135°19'0 0.0
2015-May-22 03:25N 34°31' E 135°19'0 0.0
2015-May-22 02:25N 34°31' E 135°19'0 0.0
2015-May-22 00:19N 34°31' E 135°19'0 0.1
2015-May-21 23:31N 34°31' E 135°20'0 0.0
2015-May-21 22:19N 34°31' E 135°19'0 0.0
2015-May-21 21:31N 34°31' E 135°19'0 0.1
2015-May-21 20:31N 34°32' E 135°19'8 8.7
2015-May-21 19:34N 34°27' E 135°11'1312.6
2015-May-21 18:33N 34°18' E 134°60'1211.9
2015-May-21 17:33N 34°08' E 135°06'1 0.1
2015-May-21 11:33N 34°08' E 135°07'1 1.4
2015-May-21 10:31N 34°09' E 135°08'0 0.1
2015-May-21 09:28N 34°09' E 135°08'0 0.0
2015-May-21 08:31N 34°09' E 135°08'0 0.0
2015-May-21 07:28N 34°09' E 135°08'0 0.0
2015-May-21 06:31N 34°09' E 135°08'0 0.0
2015-May-21 05:31N 34°09' E 135°08'0 0.0
2015-May-21 04:31N 34°09' E 135°08'0 0.0
2015-May-21 03:31N 34°09' E 135°08'0 0.0
2015-May-21 02:25N 34°09' E 135°08'0 0.1
2015-May-21 01:28N 34°09' E 135°08'0 0.0
2015-May-21 00:31N 34°09' E 135°08'0 0.0
2015-May-20 23:31N 34°09' E 135°08'0 0.0
2015-May-20 22:31N 34°09' E 135°08'0 0.0
2015-May-20 21:31N 34°09' E 135°08'0 0.0
2015-May-20 20:31N 34°09' E 135°08'0 0.1
2015-May-20 19:31N 34°09' E 135°08'0 0.1
2015-May-20 18:25N 34°09' E 135°08'0 0.1
2015-May-20 17:31N 34°09' E 135°08'0 0.0
2015-May-20 16:31N 34°09' E 135°08'0 0.0
2015-May-20 15:31N 34°09' E 135°08'0 0.0
2015-May-20 14:31N 34°09' E 135°08'0 0.1
2015-May-20 13:25N 34°09' E 135°08'0 0.1
2015-May-20 12:28N 34°09' E 135°08'0 0.0
2015-May-20 11:31N 34°09' E 135°08'0 0.0
2015-May-20 10:31N 34°09' E 135°08'0 0.1
2015-May-20 09:31N 34°09' E 135°08'0 0.0
2015-May-20 08:31N 34°09' E 135°08'0 0.0
2015-May-20 07:31N 34°09' E 135°08'0 0.0
2015-May-20 06:28N 34°09' E 135°08'0 0.0
2015-May-20 05:28N 34°09' E 135°08'0 0.0
2015-May-20 04:25N 34°09' E 135°08'0 0.0
2015-May-20 03:31N 34°09' E 135°08'0 0.0
2015-May-20 02:07N 34°09' E 135°08'2 4.3
2015-May-20 01:33N 34°11' E 135°06'1211.6
2015-May-20 00:33N 34°22' E 135°00'1413.7
2015-May-19 23:33N 34°29' E 135°14'5 5.1
2015-May-19 22:30N 34°32' E 135°19'0 0.0
2015-May-19 21:18N 34°32' E 135°19'0 0.0
2015-May-19 20:06N 34°32' E 135°19'0 0.0
2015-May-19 19:18N 34°32' E 135°19'0 0.0
2015-May-19 16:30N 34°32' E 135°19'0 0.0
2015-May-19 15:30N 34°32' E 135°19'0 0.0
2015-May-19 14:30N 34°32' E 135°19'0 0.0
2015-May-19 13:24N 34°32' E 135°19'0 0.0
2015-May-19 12:30N 34°32' E 135°19'0 0.0
2015-May-19 11:30N 34°32' E 135°19'5 5.6
2015-May-19 10:31N 34°33' E 135°26'0 0.0
2015-May-19 09:25N 34°33' E 135°26'0 0.0
2015-May-19 01:19N 34°33' E 135°26'0 0.0
2015-May-19 00:31N 34°33' E 135°26'0 0.1
2015-May-18 22:33N 34°33' E 135°25'5 4.5
2015-May-18 21:31N 34°32' E 135°20'0 0.0
2015-May-18 20:31N 34°32' E 135°20'0 0.0
2015-May-18 19:25N 34°32' E 135°20'0 0.1
2015-May-18 18:31N 34°32' E 135°20'0 0.0
2015-May-18 16:25N 34°32' E 135°20'0 0.0
2015-May-18 15:07N 34°32' E 135°20'0 0.0
2015-May-18 14:07N 34°32' E 135°20'0 0.0
2015-May-18 13:31N 34°32' E 135°20'0 0.0
2015-May-18 12:19N 34°32' E 135°20'0 0.0
2015-May-18 09:19N 34°32' E 135°20'0 0.0
2015-May-18 08:31N 34°32' E 135°20'0 0.0
2015-May-18 07:13N 34°32' E 135°20'0 0.1
2015-May-18 06:25N 34°32' E 135°20'0 0.0
2015-May-18 05:31N 34°32' E 135°20'9 9.0
2015-May-18 04:33N 34°35' E 135°10'1515.0
2015-May-18 03:33N 34°34' E 134°52'  
2015-May-14 18:33N 34°36' E 134°56'9 9.0
2015-May-14 17:33N 34°31' E 135°04'1513.6
2015-May-14 16:27N 34°16' E 134°59'1213.7
2015-May-14 15:32N 34°04' E 134°60'21410.6
2015-May-13 19:25N 34°46' E 139°14'1112.4
2015-May-13 18:33N 34°53' E 139°24'1313.0
2015-May-13 17:33N 35°02' E 139°36'1313.1
2015-May-13 16:33N 35°12' E 139°46'1211.8
2015-May-13 15:34N 35°23' E 139°42'1313.2
2015-May-13 14:34N 35°31' E 139°55'6 5.0
2015-May-13 13:17N 35°31' E 140°03'0 0.0
2015-May-13 12:23N 35°31' E 140°03'  

Dump ship's entire track history